createdAt,value
2018-09-14T00:01:07.400Z,2.20
2018-09-14T00:03:36.310Z,2.17
2018-09-14T00:06:05.281Z,2.00
2018-09-14T00:08:34.204Z,2.02
2018-09-14T00:11:03.196Z,2.10
2018-09-14T00:13:32.112Z,2.10
2018-09-14T00:16:01.084Z,1.85
2018-09-14T00:18:30.126Z,1.95
2018-09-14T00:20:59.005Z,2.10
2018-09-14T00:23:28.036Z,1.90
2018-09-14T00:25:57.016Z,1.98
2018-09-14T00:28:26.044Z,2.00
2018-09-14T00:30:55.044Z,2.30
2018-09-14T00:33:24.072Z,2.08
2018-09-14T00:35:53.061Z,2.20
2018-09-14T00:38:22.205Z,2.30
2018-09-14T00:40:51.264Z,1.98
2018-09-14T00:43:20.348Z,2.00
2018-09-14T00:45:49.304Z,2.00
2018-09-14T00:48:18.276Z,2.10
2018-09-14T00:50:47.216Z,2.10
2018-09-14T00:53:16.318Z,2.00
2018-09-14T00:55:45.277Z,2.00
2018-09-14T00:58:14.344Z,2.10
2018-09-14T01:00:43.292Z,1.97
2018-09-14T01:03:12.328Z,2.30
2018-09-14T01:05:41.288Z,2.10
2018-09-14T01:08:10.360Z,2.08
2018-09-14T01:10:39.415Z,2.08
2018-09-14T01:13:08.348Z,1.80
2018-09-14T01:15:37.317Z,2.12
2018-09-14T01:18:06.764Z,1.98
2018-09-14T01:20:35.738Z,2.02
2018-09-14T01:23:04.700Z,2.20
2018-09-14T01:25:33.749Z,1.80
2018-09-14T01:28:02.788Z,1.90
2018-09-14T01:30:31.657Z,2.00
2018-09-14T01:33:00.628Z,2.00
2018-09-14T01:36:32.600Z,2.10
2018-09-14T01:39:01.585Z,2.30
2018-09-14T01:41:30.563Z,1.95
2018-09-14T01:43:59.593Z,2.10
2018-09-14T01:46:28.469Z,2.00
2018-09-14T01:48:57.414Z,2.00
2018-09-14T01:51:26.387Z,2.00
2018-09-14T01:53:55.582Z,2.10
2018-09-14T01:56:24.608Z,1.90
2018-09-14T01:58:53.681Z,2.08
2018-09-14T02:01:22.666Z,1.90
2018-09-14T02:03:51.714Z,2.10
2018-09-14T02:06:20.947Z,1.98
2018-09-14T02:08:49.880Z,2.10
2018-09-14T02:11:19.285Z,2.27
2018-09-14T02:13:48.392Z,2.15
2018-09-14T02:16:17.348Z,2.20
2018-09-14T02:18:46.449Z,2.10
2018-09-14T02:21:15.372Z,2.10
2018-09-14T02:23:44.397Z,1.98
2018-09-14T02:26:13.382Z,2.17
2018-09-14T02:28:42.505Z,2.20
2018-09-14T02:31:11.489Z,2.05
2018-09-14T02:33:40.544Z,2.10
2018-09-14T02:36:09.507Z,2.00
2018-09-14T02:38:38.529Z,2.00
2018-09-14T02:41:07.510Z,2.20
2018-09-14T02:43:36.341Z,2.10
2018-09-14T02:46:05.336Z,2.12
2018-09-14T02:48:34.412Z,2.08
2018-09-14T02:51:03.428Z,2.02
2018-09-14T02:53:32.445Z,2.00
2018-09-14T02:56:01.492Z,2.15
2018-09-14T02:58:30.583Z,2.20
2018-09-14T03:00:59.441Z,2.10
2018-09-14T03:03:28.403Z,2.00
2018-09-14T03:05:57.365Z,2.00
2018-09-14T03:08:26.290Z,2.25
2018-09-14T03:10:55.260Z,2.02
2018-09-14T03:13:24.225Z,2.20
2018-09-14T03:15:53.312Z,2.00
2018-09-14T03:18:22.294Z,2.15
2018-09-14T03:20:51.236Z,2.20
2018-09-14T03:23:20.424Z,2.50
2018-09-14T03:25:49.448Z,2.20
2018-09-14T03:28:18.267Z,2.05
2018-09-14T03:30:47.398Z,2.50
2018-09-14T03:33:16.417Z,2.33
2018-09-14T03:35:45.452Z,2.17
2018-09-14T03:38:14.429Z,2.43
2018-09-14T03:40:43.348Z,2.40
2018-09-14T03:43:12.228Z,2.33
2018-09-14T03:45:41.186Z,2.10
2018-09-14T03:48:10.233Z,2.30
2018-09-14T03:50:39.071Z,2.80
2018-09-14T03:53:08.045Z,2.90
2018-09-14T03:55:37.084Z,2.50
2018-09-14T03:58:06.017Z,2.50
2018-09-14T04:00:35.198Z,2.62
2018-09-14T04:03:04.185Z,2.27
2018-09-14T04:05:33.208Z,2.35
2018-09-14T04:08:02.176Z,2.52
2018-09-14T04:10:31.216Z,2.75
2018-09-14T04:13:00.405Z,2.58
2018-09-14T04:15:29.432Z,2.63
2018-09-14T04:17:58.465Z,2.80
2018-09-14T04:20:27.459Z,3.12
2018-09-14T04:22:56.520Z,2.83
2018-09-14T04:25:25.557Z,2.75
2018-09-14T04:27:54.436Z,2.72
2018-09-14T04:30:23.472Z,3.15
2018-09-14T04:32:52.547Z,2.80
2018-09-14T04:35:21.631Z,2.83
2018-09-14T04:37:50.729Z,2.80
2018-09-14T04:40:19.834Z,2.70
2018-09-14T04:42:48.705Z,2.90
2018-09-14T04:45:17.757Z,2.70
2018-09-14T04:47:46.680Z,2.72
2018-09-14T04:50:15.706Z,3.12
2018-09-14T04:52:44.633Z,3.02
2018-09-14T04:55:13.617Z,2.80
2018-09-14T04:57:42.588Z,2.85
2018-09-14T05:00:11.640Z,3.20
2018-09-14T05:02:40.573Z,2.50
2018-09-14T05:05:09.534Z,2.52
2018-09-14T05:07:38.548Z,2.70
2018-09-14T05:10:07.632Z,2.92
2018-09-14T05:12:36.579Z,3.08
2018-09-14T05:15:05.528Z,3.00
2018-09-14T05:17:34.436Z,2.35
2018-09-14T05:20:03.472Z,2.50
2018-09-14T05:22:32.340Z,2.20
2018-09-14T05:25:01.516Z,3.00
2018-09-14T05:27:30.453Z,3.10
2018-09-14T05:29:59.545Z,2.30
2018-09-14T05:32:28.480Z,2.47
2018-09-14T05:34:57.509Z,2.83
2018-09-14T05:37:26.499Z,2.50
2018-09-14T05:39:55.500Z,3.22
2018-09-14T05:42:24.488Z,3.00
2018-09-14T05:44:53.431Z,3.17
2018-09-14T05:47:22.440Z,3.37
2018-09-14T05:49:51.420Z,3.58
2018-09-14T05:52:20.557Z,3.20
2018-09-14T05:54:49.748Z,3.47
2018-09-14T05:57:18.720Z,3.15
2018-09-14T05:59:47.753Z,2.62
2018-09-14T06:02:16.729Z,2.45
2018-09-14T06:04:45.656Z,3.30
2018-09-14T06:07:14.641Z,3.55
2018-09-14T06:09:43.772Z,2.80
2018-09-14T06:12:12.809Z,3.50
2018-09-14T06:14:41.785Z,3.45
2018-09-14T06:17:10.906Z,3.72
2018-09-14T06:19:39.788Z,3.60
2018-09-14T06:22:08.669Z,3.40
2018-09-14T06:24:37.708Z,3.80
2018-09-14T06:27:06.676Z,3.90
2018-09-14T06:29:35.721Z,4.08
2018-09-14T06:32:04.702Z,4.15
2018-09-14T06:34:33.736Z,4.05
2018-09-14T06:37:02.704Z,3.95
2018-09-14T06:39:31.744Z,4.30
2018-09-14T06:42:00.698Z,4.67
2018-09-14T06:44:29.637Z,4.15
2018-09-14T06:46:58.529Z,4.42
2018-09-14T06:49:27.557Z,4.53
2018-09-14T06:51:56.553Z,5.05
2018-09-14T06:54:25.629Z,4.67
2018-09-14T06:56:54.542Z,3.52
2018-09-14T06:59:23.673Z,5.40
2018-09-14T07:01:52.679Z,5.25
2018-09-14T07:04:21.651Z,5.25
2018-09-14T07:06:50.800Z,6.12
2018-09-14T07:09:19.836Z,5.50
2018-09-14T07:11:48.972Z,5.70
2018-09-14T07:14:17.894Z,6.72
2018-09-14T07:16:47.069Z,7.33
2018-09-14T07:19:15.988Z,5.53
2018-09-14T07:21:44.989Z,7.30
2018-09-14T07:24:13.955Z,7.97
2018-09-14T07:26:42.945Z,8.53
2018-09-14T07:29:12.031Z,6.63
2018-09-14T07:31:41.015Z,7.37
2018-09-14T07:34:09.985Z,7.40
2018-09-14T07:36:38.842Z,7.17
2018-09-14T07:39:09.523Z,6.97
2018-09-14T07:41:38.592Z,6.87
2018-09-14T07:44:07.753Z,7.55
2018-09-14T07:46:36.692Z,7.17
2018-09-14T07:49:05.607Z,7.22
2018-09-14T07:51:34.548Z,6.92
2018-09-14T07:54:03.517Z,8.00
2018-09-14T07:56:32.694Z,7.97
2018-09-14T07:59:01.623Z,7.50
2018-09-14T08:01:30.652Z,8.13
2018-09-14T08:03:59.645Z,7.53
2018-09-14T08:06:28.721Z,5.70
2018-09-14T08:08:57.653Z,6.85
2018-09-14T08:11:26.589Z,6.70
2018-09-14T08:13:55.576Z,7.50
2018-09-14T08:16:24.497Z,6.63
2018-09-14T08:18:53.462Z,6.53
2018-09-14T08:21:22.362Z,4.47
2018-09-14T08:23:51.241Z,6.50
2018-09-14T08:26:20.199Z,5.53
2018-09-14T08:28:49.092Z,3.70
2018-09-14T08:31:18.125Z,5.87
2018-09-14T08:33:47.177Z,4.17
2018-09-14T08:36:16.030Z,5.58
2018-09-14T08:38:44.989Z,5.67
2018-09-14T08:41:13.925Z,4.45
2018-09-14T08:43:42.891Z,5.40
2018-09-14T08:46:12.110Z,4.35
2018-09-14T08:48:41.103Z,4.58
2018-09-14T08:51:10.180Z,5.35
2018-09-14T08:53:39.158Z,5.07
2018-09-14T08:56:08.129Z,5.57
2018-09-14T08:58:37.160Z,5.58
2018-09-14T09:01:06.656Z,7.17
2018-09-14T09:03:35.734Z,6.22
2018-09-14T09:06:04.684Z,6.80
2018-09-14T09:08:34.020Z,6.97
2018-09-14T09:11:02.881Z,7.65
2018-09-14T09:13:31.808Z,7.25
2018-09-14T09:16:00.684Z,7.40
2018-09-14T09:18:29.575Z,6.33
2018-09-14T09:20:58.450Z,7.20
2018-09-14T09:23:27.395Z,7.40
2018-09-14T09:25:56.513Z,7.08
2018-09-14T09:28:25.532Z,6.83
2018-09-14T09:30:54.609Z,6.00
2018-09-14T09:33:23.549Z,5.67
2018-09-14T09:35:52.756Z,5.15
2018-09-14T09:38:21.776Z,6.47
2018-09-14T09:40:50.791Z,7.50
2018-09-14T09:43:19.983Z,6.60
2018-09-14T09:45:48.760Z,6.30
2018-09-14T09:48:17.676Z,6.65
2018-09-14T09:50:46.781Z,5.90
2018-09-14T09:53:15.696Z,5.12
2018-09-14T09:55:44.665Z,4.67
2018-09-14T09:58:13.589Z,5.37
2018-09-14T10:00:42.747Z,5.40
2018-09-14T10:03:20.633Z,5.55
2018-09-14T10:05:54.688Z,4.03
2018-09-14T10:08:23.620Z,4.03
2018-09-14T10:10:52.861Z,5.08
2018-09-14T10:13:21.844Z,3.40
2018-09-14T10:15:50.754Z,3.98
2018-09-14T10:18:19.427Z,4.78
2018-09-14T10:20:48.407Z,4.90
2018-09-14T10:23:17.255Z,4.37
2018-09-14T10:25:46.272Z,3.70
2018-09-14T10:28:15.249Z,3.85
2018-09-14T10:30:44.288Z,3.40
2018-09-14T10:33:13.231Z,4.30
2018-09-14T10:35:42.089Z,4.47
2018-09-14T10:38:11.076Z,3.57
2018-09-14T10:40:39.947Z,4.13
2018-09-14T10:43:08.984Z,3.80
2018-09-14T10:45:38.113Z,4.20
2018-09-14T10:48:07.180Z,2.50
2018-09-14T10:50:36.120Z,3.80
2018-09-14T10:53:05.201Z,3.98
2018-09-14T10:55:34.232Z,4.10
2018-09-14T10:58:03.108Z,3.70
2018-09-14T11:00:32.193Z,3.20
2018-09-14T11:03:01.133Z,2.77
2018-09-14T11:05:30.152Z,2.72
2018-09-14T11:07:59.348Z,2.35
2018-09-14T11:10:28.364Z,3.00
2018-09-14T11:12:57.500Z,2.67
2018-09-14T11:15:26.520Z,2.70
2018-09-14T11:17:55.370Z,2.52
2018-09-14T11:20:24.307Z,2.80
2018-09-14T11:22:53.296Z,2.05
2018-09-14T11:25:22.317Z,2.30
2018-09-14T11:27:51.381Z,2.10
2018-09-14T11:30:20.417Z,2.52
2018-09-14T11:32:49.908Z,2.33
2018-09-14T11:35:19.024Z,2.70
2018-09-14T11:37:48.080Z,3.00
2018-09-14T11:40:17.018Z,3.55
2018-09-14T11:42:45.952Z,2.90
2018-09-14T11:45:14.985Z,3.00
2018-09-14T11:47:43.863Z,2.90
2018-09-14T11:50:12.964Z,3.07
2018-09-14T11:52:41.977Z,2.70
2018-09-14T11:55:10.900Z,2.55
2018-09-14T11:57:39.883Z,2.60
2018-09-14T12:00:08.884Z,2.87
2018-09-14T12:02:39.168Z,2.57
2018-09-14T12:05:08.412Z,3.02
2018-09-14T12:07:37.348Z,2.90
2018-09-14T12:10:07.005Z,2.67
2018-09-14T12:12:36.068Z,2.50
2018-09-14T12:15:05.257Z,2.20
2018-09-14T12:17:34.208Z,2.58
2018-09-14T12:20:03.177Z,2.50
2018-09-14T12:22:32.189Z,2.50
2018-09-14T12:25:01.172Z,2.83
2018-09-14T12:27:30.152Z,2.80
2018-09-14T12:29:59.072Z,3.10
2018-09-14T12:32:28.025Z,2.83
2018-09-14T12:34:56.992Z,2.95
2018-09-14T12:37:25.884Z,2.70
2018-09-14T12:39:54.825Z,3.50
2018-09-14T12:42:23.899Z,3.10
2018-09-14T12:44:52.801Z,2.77
2018-09-14T12:47:21.724Z,2.83
2018-09-14T12:49:50.784Z,2.67
2018-09-14T12:52:19.865Z,2.90
2018-09-14T12:54:49.041Z,3.07
2018-09-14T12:57:17.974Z,3.17
2018-09-14T12:59:46.963Z,2.90
2018-09-14T13:02:15.968Z,3.30
2018-09-14T13:04:45.011Z,3.03
2018-09-14T13:07:13.873Z,3.00
2018-09-14T13:09:42.896Z,3.02
2018-09-14T13:12:11.869Z,3.20
2018-09-14T13:14:41.001Z,3.10
2018-09-14T13:17:11.896Z,2.80
2018-09-14T13:19:41.212Z,2.77
2018-09-14T13:22:10.391Z,1.95
2018-09-14T13:24:39.384Z,2.10
2018-09-14T13:27:08.448Z,2.37
2018-09-14T13:29:37.388Z,2.35
2018-09-14T13:32:06.481Z,2.42
2018-09-14T13:34:35.372Z,2.30
2018-09-14T13:37:04.290Z,2.20
2018-09-14T13:39:33.416Z,2.30
2018-09-14T13:42:02.409Z,2.47
2018-09-14T13:44:31.389Z,1.90
2018-09-14T13:47:00.353Z,2.00
2018-09-14T13:49:29.353Z,1.95
2018-09-14T13:51:58.208Z,1.70
2018-09-14T13:54:27.085Z,1.80
2018-09-14T13:56:56.044Z,1.90
2018-09-14T13:59:25.117Z,1.70
2018-09-14T14:01:54.144Z,1.80
2018-09-14T14:04:23.224Z,1.87
2018-09-14T14:06:52.276Z,1.90
2018-09-14T14:09:21.368Z,2.00
2018-09-14T14:11:50.391Z,2.20
2018-09-14T14:14:19.475Z,2.20
2018-09-14T14:16:48.534Z,1.63
2018-09-14T14:19:17.483Z,2.13
2018-09-14T14:21:46.508Z,2.23
2018-09-14T14:24:15.492Z,1.90
2018-09-14T14:26:44.552Z,1.90
2018-09-14T14:29:13.500Z,2.03
2018-09-14T14:31:42.547Z,1.80
2018-09-14T14:34:11.504Z,1.70
2018-09-14T14:36:40.548Z,1.92
2018-09-14T14:39:10.176Z,2.10
2018-09-14T14:41:39.060Z,1.80
2018-09-14T14:44:08.032Z,1.77
2018-09-14T14:46:36.860Z,1.77
2018-09-14T14:49:05.912Z,1.50
2018-09-14T14:51:34.892Z,1.82
2018-09-14T14:54:03.865Z,1.80
2018-09-14T14:56:32.760Z,1.80
2018-09-14T14:59:01.809Z,1.80
2018-09-14T15:01:30.773Z,1.60
2018-09-14T15:03:59.816Z,1.80
2018-09-14T15:06:28.786Z,1.90
2018-09-14T15:08:57.816Z,1.70
2018-09-14T15:11:26.639Z,2.30
2018-09-14T15:13:55.637Z,1.70
2018-09-14T15:16:24.726Z,2.75
2018-09-14T15:18:53.943Z,2.20
2018-09-14T15:21:23.010Z,2.20
2018-09-14T15:23:51.901Z,2.00
2018-09-14T15:26:20.840Z,2.03
2018-09-14T15:28:49.870Z,2.85
2018-09-14T15:31:18.826Z,2.55
2018-09-14T15:33:47.812Z,2.20
2018-09-14T15:36:16.714Z,2.30
2018-09-14T15:38:45.703Z,2.25
2018-09-14T15:41:15.885Z,2.22
2018-09-14T15:43:44.916Z,2.10
2018-09-14T15:46:13.976Z,1.90
2018-09-14T15:48:42.968Z,1.90
2018-09-14T15:51:11.899Z,1.72
2018-09-14T15:53:40.928Z,2.05
2018-09-14T15:56:10.020Z,1.60
2018-09-14T15:58:38.937Z,1.80
2018-09-14T16:01:07.908Z,2.12
2018-09-14T16:03:36.765Z,1.98
2018-09-14T16:06:05.724Z,2.10
2018-09-14T16:08:34.700Z,1.83
2018-09-14T16:11:03.715Z,1.70
2018-09-14T16:13:32.569Z,2.00
2018-09-14T16:16:01.529Z,1.80
2018-09-14T16:18:30.644Z,1.98
2018-09-14T16:20:59.804Z,1.90
2018-09-14T16:23:28.763Z,1.90
2018-09-14T16:25:57.800Z,1.90
2018-09-14T16:28:26.779Z,2.05
2018-09-14T16:30:55.924Z,1.80
2018-09-14T16:33:24.796Z,1.67
2018-09-14T16:35:53.803Z,1.85
2018-09-14T16:38:22.808Z,1.87
2018-09-14T16:40:51.812Z,2.08
2018-09-14T16:43:20.748Z,1.70
2018-09-14T16:45:49.861Z,1.95
2018-09-14T16:48:18.929Z,2.10
2018-09-14T16:50:47.940Z,1.90
2018-09-14T16:53:16.919Z,1.65
2018-09-14T16:55:46.012Z,1.70
2018-09-14T16:58:15.024Z,1.60
2018-09-14T17:00:44.086Z,1.60
2018-09-14T17:03:13.153Z,1.90
2018-09-14T17:05:42.231Z,1.75
2018-09-14T17:08:11.160Z,1.70
2018-09-14T17:10:40.102Z,1.80
2018-09-14T17:13:09.064Z,1.70
2018-09-14T17:15:38.014Z,1.70
2018-09-14T17:18:06.946Z,1.80
2018-09-14T17:20:35.824Z,1.60
2018-09-14T17:23:04.884Z,1.72
2018-09-14T17:25:36.949Z,1.50
2018-09-14T17:28:06.084Z,1.90
2018-09-14T17:30:35.081Z,1.65
2018-09-14T17:33:04.522Z,1.70
2018-09-14T17:35:33.526Z,1.87
2018-09-14T17:38:02.547Z,1.70
2018-09-14T17:40:31.536Z,1.80
2018-09-14T17:43:00.601Z,1.87
2018-09-14T17:45:29.524Z,2.20
2018-09-14T17:47:58.567Z,2.02
2018-09-14T17:50:27.640Z,1.72
2018-09-14T17:52:56.692Z,1.90
2018-09-14T17:55:25.549Z,1.95
2018-09-14T17:57:54.433Z,1.85
2018-09-14T18:00:23.474Z,1.72
2018-09-14T18:02:52.472Z,1.90
2018-09-14T18:05:21.468Z,1.73
2018-09-14T18:07:50.360Z,1.70
2018-09-14T18:10:19.272Z,1.80
2018-09-14T18:12:48.328Z,2.00
2018-09-14T18:15:17.288Z,1.80
2018-09-14T18:17:46.324Z,2.05
2018-09-14T18:20:15.278Z,1.65
2018-09-14T18:22:44.311Z,1.90
2018-09-14T18:25:13.323Z,1.90
2018-09-14T18:27:42.331Z,1.90
2018-09-14T18:30:11.420Z,1.82
2018-09-14T18:32:40.365Z,2.10
2018-09-14T18:35:09.432Z,1.85
2018-09-14T18:37:38.377Z,2.20
2018-09-14T18:40:07.340Z,1.87
2018-09-14T18:42:36.242Z,1.80
2018-09-14T18:45:05.382Z,1.80
2018-09-14T18:47:34.437Z,1.87
2018-09-14T18:50:03.383Z,2.07
2018-09-14T18:52:32.408Z,2.17
2018-09-14T18:55:01.583Z,1.92
2018-09-14T18:57:30.588Z,1.97
2018-09-14T18:59:59.576Z,1.93
2018-09-14T19:02:28.619Z,2.02
2018-09-14T19:04:57.902Z,2.20
2018-09-14T19:07:27.025Z,2.30
2018-09-14T19:09:56.170Z,2.25
2018-09-14T19:12:25.453Z,2.37
2018-09-14T19:14:54.456Z,1.90
2018-09-14T19:17:23.652Z,2.55
2018-09-14T19:19:52.585Z,1.98
2018-09-14T19:22:21.618Z,2.10
2018-09-14T19:24:50.656Z,2.27
2018-09-14T19:27:19.553Z,2.40
2018-09-14T19:29:48.584Z,2.50
2018-09-14T19:32:17.668Z,2.08
2018-09-14T19:34:46.652Z,1.90
2018-09-14T19:37:15.540Z,2.02
2018-09-14T19:39:45.039Z,2.13
2018-09-14T19:42:14.128Z,2.40
2018-09-14T19:44:43.300Z,1.90
2018-09-14T19:47:12.665Z,2.40
2018-09-14T19:49:41.924Z,2.40
2018-09-14T19:52:11.116Z,2.42
2018-09-14T19:54:40.484Z,2.15
2018-09-14T19:57:10.325Z,2.10
2018-09-14T19:59:39.821Z,2.15
2018-09-14T20:02:09.265Z,2.27
2018-09-14T20:04:38.733Z,1.98
2018-09-14T20:07:08.148Z,2.02
2018-09-14T20:09:37.742Z,2.20
2018-09-14T20:12:06.867Z,2.00
2018-09-14T20:14:35.916Z,2.27
2018-09-14T20:17:08.168Z,2.30
2018-09-14T20:19:37.747Z,2.27
2018-09-14T20:22:07.656Z,2.40
2018-09-14T20:24:36.592Z,2.30
2018-09-14T20:27:05.771Z,2.20
2018-09-14T20:29:34.730Z,2.33
2018-09-14T20:32:03.972Z,2.33
2018-09-14T20:34:33.056Z,2.58
2018-09-14T20:37:02.075Z,2.22
2018-09-14T20:39:31.083Z,2.47
2018-09-14T20:42:00.108Z,2.27
2018-09-14T20:44:29.161Z,2.40
2018-09-14T20:46:58.216Z,2.17
2018-09-14T20:49:27.299Z,2.52
2018-09-14T20:51:56.404Z,2.35
2018-09-14T20:54:25.392Z,2.15
2018-09-14T20:56:54.420Z,2.50
2018-09-14T20:59:23.525Z,2.75
2018-09-14T21:01:52.678Z,2.42
2018-09-14T21:04:22.059Z,2.47
2018-09-14T21:06:51.308Z,2.87
2018-09-14T21:09:20.359Z,2.63
2018-09-14T21:11:49.457Z,2.63
2018-09-14T21:14:18.398Z,2.47
2018-09-14T21:16:47.489Z,2.63
2018-09-14T21:19:16.945Z,2.57
2018-09-14T21:21:46.172Z,2.50
2018-09-14T21:24:15.506Z,2.52
2018-09-14T21:26:44.707Z,2.50
2018-09-14T21:29:14.158Z,2.87
2018-09-14T21:31:43.491Z,2.52
2018-09-14T21:34:12.753Z,2.55
2018-09-14T21:36:41.902Z,2.57
2018-09-14T21:39:11.900Z,2.70
2018-09-14T21:41:41.357Z,2.98
2018-09-14T21:44:10.813Z,2.47
2018-09-14T21:46:39.881Z,2.53
2018-09-14T21:49:09.046Z,2.60
2018-09-14T21:51:38.169Z,2.58
2018-09-14T21:54:07.381Z,2.25
2018-09-14T21:56:36.262Z,2.62
2018-09-14T21:59:05.333Z,2.50
2018-09-14T22:01:34.173Z,2.52
2018-09-14T22:04:03.306Z,2.60
2018-09-14T22:06:32.301Z,2.20
2018-09-14T22:09:01.440Z,2.12
2018-09-14T22:11:30.634Z,2.75
2018-09-14T22:13:59.556Z,2.52
2018-09-14T22:16:28.636Z,2.70
2018-09-14T22:18:57.825Z,2.45
2018-09-14T22:21:27.146Z,2.50
2018-09-14T22:23:56.412Z,2.50
2018-09-14T22:26:26.273Z,3.20
2018-09-14T22:28:55.730Z,2.58
2018-09-14T22:31:24.849Z,2.50
2018-09-14T22:33:54.369Z,2.35
2018-09-14T22:36:23.607Z,2.22
2018-09-14T22:38:52.732Z,2.60
2018-09-14T22:41:21.805Z,2.40
2018-09-14T22:43:50.744Z,2.77
2018-09-14T22:46:19.771Z,3.08
2018-09-14T22:48:48.757Z,3.02
2018-09-14T22:51:17.781Z,2.80
2018-09-14T22:53:46.761Z,2.87
2018-09-14T22:56:16.428Z,2.80
2018-09-14T22:58:45.601Z,2.92
2018-09-14T23:01:16.744Z,3.12
2018-09-14T23:03:46.412Z,2.87
2018-09-14T23:06:15.362Z,2.80
2018-09-14T23:08:44.541Z,2.60
2018-09-14T23:11:13.507Z,2.98
2018-09-14T23:13:42.479Z,2.90
2018-09-14T23:16:11.528Z,2.85
2018-09-14T23:18:40.573Z,2.98
2018-09-14T23:21:09.812Z,2.85
2018-09-14T23:23:38.852Z,3.10
2018-09-14T23:26:11.210Z,3.50
2018-09-14T23:28:40.415Z,2.65
2018-09-14T23:31:09.444Z,3.15
2018-09-14T23:33:38.560Z,2.75
2018-09-14T23:36:07.720Z,2.60
2018-09-14T23:38:36.972Z,2.80
2018-09-14T23:41:06.084Z,2.40
2018-09-14T23:43:35.281Z,3.00
2018-09-14T23:46:04.676Z,2.85
2018-09-14T23:48:34.446Z,2.90
2018-09-14T23:51:03.801Z,2.87
2018-09-14T23:53:33.314Z,3.75
2018-09-14T23:56:02.715Z,3.27
2018-09-14T23:58:31.749Z,3.20
